sensor_id;sensor_type;location;lat;lon;timestamp;pressure;altitude;pressure_sealevel;temperature;humidity
81057;BME280;70563;50.084;14.468;2023-12-20T00:01:16;98319.78;;;5.69;65.28
81057;BME280;70563;50.084;14.468;2023-12-20T00:03:41;98311.28;;;5.67;65.28
81057;BME280;70563;50.084;14.468;2023-12-20T00:06:07;98296.06;;;5.70;65.78
81057;BME280;70563;50.084;14.468;2023-12-20T00:08:33;98306.69;;;5.77;65.55
81057;BME280;70563;50.084;14.468;2023-12-20T00:10:58;98301.13;;;5.64;66.72
81057;BME280;70563;50.084;14.468;2023-12-20T00:13:23;98290.13;;;5.60;67.39
81057;BME280;70563;50.084;14.468;2023-12-20T00:15:49;98290.81;;;5.70;66.82
81057;BME280;70563;50.084;14.468;2023-12-20T00:18:14;98295.38;;;5.60;66.52
81057;BME280;70563;50.084;14.468;2023-12-20T00:20:39;98300.09;;;5.57;67.76
81057;BME280;70563;50.084;14.468;2023-12-20T00:23:05;98308.19;;;5.71;67.70
81057;BME280;70563;50.084;14.468;2023-12-20T00:25:30;98293.09;;;5.49;68.18
81057;BME280;70563;50.084;14.468;2023-12-20T00:27:55;98290.09;;;5.44;68.95
81057;BME280;70563;50.084;14.468;2023-12-20T00:30:21;98291.56;;;5.38;70.02
81057;BME280;70563;50.084;14.468;2023-12-20T00:32:46;98278.66;;;5.37;70.13
81057;BME280;70563;50.084;14.468;2023-12-20T00:35:15;98289.59;;;5.32;70.99
81057;BME280;70563;50.084;14.468;2023-12-20T00:37:40;98308.22;;;5.29;71.24
81057;BME280;70563;50.084;14.468;2023-12-20T00:40:06;98311.19;;;5.34;71.58
81057;BME280;70563;50.084;14.468;2023-12-20T00:42:32;98292.00;;;5.25;72.17
81057;BME280;70563;50.084;14.468;2023-12-20T00:44:58;98279.59;;;5.27;71.85
81057;BME280;70563;50.084;14.468;2023-12-20T00:47:24;98275.50;;;5.25;72.33
81057;BME280;70563;50.084;14.468;2023-12-20T00:49:49;98270.25;;;5.25;72.78
81057;BME280;70563;50.084;14.468;2023-12-20T00:52:15;98288.03;;;5.13;73.39
81057;BME280;70563;50.084;14.468;2023-12-20T00:54:42;98264.34;;;5.15;73.52
81057;BME280;70563;50.084;14.468;2023-12-20T00:57:07;98254.19;;;5.12;74.29
81057;BME280;70563;50.084;14.468;2023-12-20T00:59:33;98256.00;;;5.11;73.32
81057;BME280;70563;50.084;14.468;2023-12-20T01:01:58;98250.06;;;5.09;74.34
81057;BME280;70563;50.084;14.468;2023-12-20T01:04:23;98245.53;;;5.11;73.96
81057;BME280;70563;50.084;14.468;2023-12-20T01:06:49;98247.47;;;5.01;75.53
81057;BME280;70563;50.084;14.468;2023-12-20T01:09:14;98251.38;;;4.97;76.43
81057;BME280;70563;50.084;14.468;2023-12-20T01:11:39;98258.84;;;4.92;76.72
81057;BME280;70563;50.084;14.468;2023-12-20T01:14:05;98261.81;;;4.89;77.45
81057;BME280;70563;50.084;14.468;2023-12-20T01:16:30;98249.34;;;4.83;77.83
81057;BME280;70563;50.084;14.468;2023-12-20T01:18:56;98256.22;;;4.84;77.90
81057;BME280;70563;50.084;14.468;2023-12-20T01:21:21;98252.63;;;4.85;78.57
81057;BME280;70563;50.084;14.468;2023-12-20T01:23:46;98245.44;;;4.87;77.99
81057;BME280;70563;50.084;14.468;2023-12-20T01:26:12;98237.75;;;4.85;78.36
81057;BME280;70563;50.084;14.468;2023-12-20T01:28:38;98236.13;;;4.84;78.68
81057;BME280;70563;50.084;14.468;2023-12-20T01:31:03;98232.34;;;4.87;78.89
81057;BME280;70563;50.084;14.468;2023-12-20T01:33:29;98230.38;;;4.81;79.14
81057;BME280;70563;50.084;14.468;2023-12-20T01:35:54;98222.88;;;4.86;79.01
81057;BME280;70563;50.084;14.468;2023-12-20T01:38:20;98212.72;;;4.83;79.45
81057;BME280;70563;50.084;14.468;2023-12-20T01:40:45;98216.81;;;4.85;79.32
81057;BME280;70563;50.084;14.468;2023-12-20T01:43:11;98207.81;;;4.80;79.99
81057;BME280;70563;50.084;14.468;2023-12-20T01:45:37;98202.91;;;4.76;80.45
81057;BME280;70563;50.084;14.468;2023-12-20T01:48:04;98203.88;;;4.75;81.01
81057;BME280;70563;50.084;14.468;2023-12-20T01:50:31;98194.06;;;4.77;80.85
81057;BME280;70563;50.084;14.468;2023-12-20T01:52:58;98191.63;;;4.76;81.17
81057;BME280;70563;50.084;14.468;2023-12-20T01:55:25;98194.72;;;4.71;81.42
81057;BME280;70563;50.084;14.468;2023-12-20T01:57:52;98191.09;;;4.72;81.68
81057;BME280;70563;50.084;14.468;2023-12-20T02:00:18;98190.59;;;4.69;82.82
81057;BME280;70563;50.084;14.468;2023-12-20T02:02:49;98186.53;;;4.66;83.00
81057;BME280;70563;50.084;14.468;2023-12-20T02:05:16;98186.81;;;4.63;83.03
81057;BME280;70563;50.084;14.468;2023-12-20T02:07:42;98181.59;;;4.63;83.10
81057;BME280;70563;50.084;14.468;2023-12-20T02:10:08;98187.94;;;4.61;83.73
81057;BME280;70563;50.084;14.468;2023-12-20T02:12:33;98191.38;;;4.61;83.97
81057;BME280;70563;50.084;14.468;2023-12-20T02:14:58;98187.94;;;4.61;83.85
81057;BME280;70563;50.084;14.468;2023-12-20T02:17:25;98184.81;;;4.57;84.67
81057;BME280;70563;50.084;14.468;2023-12-20T02:19:51;98183.53;;;4.61;84.41
81057;BME280;70563;50.084;14.468;2023-12-20T02:22:16;98186.84;;;4.71;84.01
81057;BME280;70563;50.084;14.468;2023-12-20T02:24:41;98191.53;;;4.60;84.21
81057;BME280;70563;50.084;14.468;2023-12-20T02:27:07;98186.78;;;4.55;84.36
81057;BME280;70563;50.084;14.468;2023-12-20T02:29:34;98177.31;;;4.54;84.90
81057;BME280;70563;50.084;14.468;2023-12-20T02:31:59;98179.59;;;4.57;84.97
81057;BME280;70563;50.084;14.468;2023-12-20T02:34:25;98178.78;;;4.57;85.07
81057;BME280;70563;50.084;14.468;2023-12-20T02:36:50;98177.78;;;4.58;84.36
81057;BME280;70563;50.084;14.468;2023-12-20T02:39:16;98177.78;;;4.58;84.26
81057;BME280;70563;50.084;14.468;2023-12-20T02:41:41;98175.66;;;4.53;84.95
81057;BME280;70563;50.084;14.468;2023-12-20T02:44:07;98168.50;;;4.55;84.74
81057;BME280;70563;50.084;14.468;2023-12-20T02:46:32;98165.75;;;4.65;84.86
81057;BME280;70563;50.084;14.468;2023-12-20T02:48:57;98175.34;;;4.56;84.79
81057;BME280;70563;50.084;14.468;2023-12-20T02:51:23;98178.63;;;4.58;84.52
81057;BME280;70563;50.084;14.468;2023-12-20T02:53:48;98178.13;;;4.55;85.44
81057;BME280;70563;50.084;14.468;2023-12-20T02:56:13;98174.53;;;4.56;85.47
81057;BME280;70563;50.084;14.468;2023-12-20T02:58:39;98173.53;;;4.57;85.60
81057;BME280;70563;50.084;14.468;2023-12-20T03:01:05;98177.31;;;4.54;86.18
81057;BME280;70563;50.084;14.468;2023-12-20T03:03:31;98177.44;;;4.52;85.70
81057;BME280;70563;50.084;14.468;2023-12-20T03:05:56;98167.66;;;4.55;86.02
81057;BME280;70563;50.084;14.468;2023-12-20T03:08:22;98178.63;;;4.58;86.21
81057;BME280;70563;50.084;14.468;2023-12-20T03:10:47;98167.81;;;4.53;86.78
81057;BME280;70563;50.084;14.468;2023-12-20T03:13:12;98164.56;;;4.51;87.20
81057;BME280;70563;50.084;14.468;2023-12-20T03:15:38;98169.44;;;4.46;87.59
81057;BME280;70563;50.084;14.468;2023-12-20T03:18:03;98163.25;;;4.55;86.68
81057;BME280;70563;50.084;14.468;2023-12-20T03:20:29;98175.66;;;4.53;87.62
81057;BME280;70563;50.084;14.468;2023-12-20T03:22:58;98170.91;;;4.48;87.60
81057;BME280;70563;50.084;14.468;2023-12-20T03:25:23;98167.94;;;4.43;87.97
81057;BME280;70563;50.084;14.468;2023-12-20T03:27:48;98159.44;;;4.41;87.39
81057;BME280;70563;50.084;14.468;2023-12-20T03:30:14;98174.16;;;4.42;87.93
81057;BME280;70563;50.084;14.468;2023-12-20T03:32:39;98161.84;;;4.35;88.70
81057;BME280;70563;50.084;14.468;2023-12-20T03:35:05;98168.41;;;4.39;88.60
81057;BME280;70563;50.084;14.468;2023-12-20T03:37:31;98163.88;;;4.41;88.52
81057;BME280;70563;50.084;14.468;2023-12-20T03:39:56;98169.22;;;4.39;88.37
81057;BME280;70563;50.084;14.468;2023-12-20T03:42:21;98161.38;;;4.39;88.11
81057;BME280;70563;50.084;14.468;2023-12-20T03:44:47;98161.72;;;4.36;88.60
81057;BME280;70563;50.084;14.468;2023-12-20T03:47:12;98160.06;;;4.35;88.87
81057;BME280;70563;50.084;14.468;2023-12-20T03:49:38;98174.94;;;4.35;88.63
81057;BME280;70563;50.084;14.468;2023-12-20T03:52:04;98169.41;;;4.38;88.72
81057;BME280;70563;50.084;14.468;2023-12-20T03:54:29;98161.72;;;4.36;88.65
81057;BME280;70563;50.084;14.468;2023-12-20T03:56:55;98165.44;;;4.34;89.50
81057;BME280;70563;50.084;14.468;2023-12-20T03:59:20;98155.16;;;4.32;89.25
81057;BME280;70563;50.084;14.468;2023-12-20T04:01:45;98160.53;;;4.31;88.82
81057;BME280;70563;50.084;14.468;2023-12-20T04:04:11;98165.44;;;4.34;88.75
81057;BME280;70563;50.084;14.468;2023-12-20T04:06:37;98163.50;;;4.36;88.88
81057;BME280;70563;50.084;14.468;2023-12-20T04:09:03;98156.03;;;4.41;88.14
81057;BME280;70563;50.084;14.468;2023-12-20T04:11:28;98156.94;;;4.32;88.18
81057;BME280;70563;50.084;14.468;2023-12-20T04:13:54;98161.25;;;4.41;88.78
81057;BME280;70563;50.084;14.468;2023-12-20T04:16:19;98164.16;;;4.38;88.63
81057;BME280;70563;50.084;14.468;2023-12-20T04:18:44;98160.53;;;4.31;88.17
81057;BME280;70563;50.084;14.468;2023-12-20T04:21:10;98167.72;;;4.28;88.06
81057;BME280;70563;50.084;14.468;2023-12-20T04:23:35;98165.81;;;4.39;87.59
81057;BME280;70563;50.084;14.468;2023-12-20T04:26:01;98168.16;;;4.50;87.65
81057;BME280;70563;50.084;14.468;2023-12-20T04:28:26;98170.72;;;4.42;88.16
81057;BME280;70563;50.084;14.468;2023-12-20T04:30:51;98170.03;;;4.40;86.74
81057;BME280;70563;50.084;14.468;2023-12-20T04:33:17;98173.34;;;4.42;86.76
81057;BME280;70563;50.084;14.468;2023-12-20T04:35:42;98169.22;;;4.39;87.46
81057;BME280;70563;50.084;14.468;2023-12-20T04:38:08;98170.22;;;4.38;86.92
81057;BME280;70563;50.084;14.468;2023-12-20T04:40:34;98170.00;;;4.32;87.23
81057;BME280;70563;50.084;14.468;2023-12-20T04:42:59;98173.13;;;4.35;87.19
81057;BME280;70563;50.084;14.468;2023-12-20T04:45:25;98170.97;;;4.31;87.40
81057;BME280;70563;50.084;14.468;2023-12-20T04:47:51;98173.59;;;4.31;87.05
81057;BME280;70563;50.084;14.468;2023-12-20T04:50:16;98179.34;;;4.34;87.21
81057;BME280;70563;50.084;14.468;2023-12-20T04:52:42;98176.59;;;4.44;86.64
81057;BME280;70563;50.084;14.468;2023-12-20T04:55:07;98172.38;;;4.51;87.01
81057;BME280;70563;50.084;14.468;2023-12-20T04:57:34;98172.69;;;4.48;86.26
81057;BME280;70563;50.084;14.468;2023-12-20T04:59:59;98169.91;;;4.41;87.25
81057;BME280;70563;50.084;14.468;2023-12-20T05:02:25;98175.41;;;4.30;87.69
81057;BME280;70563;50.084;14.468;2023-12-20T05:04:50;98172.44;;;4.25;87.74
81057;BME280;70563;50.084;14.468;2023-12-20T05:07:16;98171.63;;;4.24;87.79
81057;BME280;70563;50.084;14.468;2023-12-20T05:09:41;98170.69;;;4.34;87.41
81057;BME280;70563;50.084;14.468;2023-12-20T05:12:07;98175.22;;;4.32;88.38
81057;BME280;70563;50.084;14.468;2023-12-20T05:14:32;98164.81;;;4.40;87.82
81057;BME280;70563;50.084;14.468;2023-12-20T05:16:58;98171.41;;;4.52;87.37
81057;BME280;70563;50.084;14.468;2023-12-20T05:19:23;98179.25;;;4.52;86.83
81057;BME280;70563;50.084;14.468;2023-12-20T05:21:49;98171.31;;;4.27;87.57
81057;BME280;70563;50.084;14.468;2023-12-20T05:24:14;98178.00;;;4.30;87.69
81057;BME280;70563;50.084;14.468;2023-12-20T05:26:40;98175.22;;;4.23;88.06
81057;BME280;70563;50.084;14.468;2023-12-20T05:29:05;98181.56;;;4.21;87.52
81057;BME280;70563;50.084;14.468;2023-12-20T05:31:31;98184.34;;;4.19;87.82
81057;BME280;70563;50.084;14.468;2023-12-20T05:33:57;98177.50;;;4.26;86.83
81057;BME280;70563;50.084;14.468;2023-12-20T05:36:22;98181.22;;;4.16;88.54
81057;BME280;70563;50.084;14.468;2023-12-20T05:38:47;98189.50;;;4.11;89.26
81057;BME280;70563;50.084;14.468;2023-12-20T05:41:13;98196.06;;;4.15;89.60
81057;BME280;70563;50.084;14.468;2023-12-20T05:43:39;98194.09;;;4.17;88.42
81057;BME280;70563;50.084;14.468;2023-12-20T05:46:04;98195.25;;;4.15;88.45
81057;BME280;70563;50.084;14.468;2023-12-20T05:48:29;98188.22;;;4.15;89.41
81057;BME280;70563;50.084;14.468;2023-12-20T05:50:55;98177.44;;;4.18;87.76
81057;BME280;70563;50.084;14.468;2023-12-20T05:53:20;98191.53;;;4.25;88.49
81057;BME280;70563;50.084;14.468;2023-12-20T05:55:45;98192.00;;;4.21;87.38
81057;BME280;70563;50.084;14.468;2023-12-20T05:58:11;98190.34;;;4.12;87.65
81057;BME280;70563;50.084;14.468;2023-12-20T06:00:36;98199.81;;;4.13;88.30
81057;BME280;70563;50.084;14.468;2023-12-20T06:03:02;98194.78;;;4.19;87.32
81057;BME280;70563;50.084;14.468;2023-12-20T06:05:30;98190.72;;;4.25;87.20
81057;BME280;70563;50.084;14.468;2023-12-20T06:07:55;98196.41;;;4.20;87.77
81057;BME280;70563;50.084;14.468;2023-12-20T06:10:22;98189.22;;;4.22;88.18
81057;BME280;70563;50.084;14.468;2023-12-20T06:12:48;98192.13;;;4.11;88.11
81057;BME280;70563;50.084;14.468;2023-12-20T06:15:15;98194.38;;;4.06;87.96
81057;BME280;70563;50.084;14.468;2023-12-20T06:17:40;98204.03;;;4.14;88.06
81057;BME280;70563;50.084;14.468;2023-12-20T06:20:07;98206.47;;;4.07;88.31
81057;BME280;70563;50.084;14.468;2023-12-20T06:22:34;98203.84;;;4.07;88.41
81057;BME280;70563;50.084;14.468;2023-12-20T06:24:59;98213.56;;;4.15;88.24
81057;BME280;70563;50.084;14.468;2023-12-20T06:27:24;98214.03;;;4.18;88.21
81057;BME280;70563;50.084;14.468;2023-12-20T06:29:50;98213.84;;;4.12;87.29
81057;BME280;70563;50.084;14.468;2023-12-20T06:32:15;98211.88;;;4.14;88.29
81057;BME280;70563;50.084;14.468;2023-12-20T06:34:40;98210.34;;;4.29;87.88
81057;BME280;70563;50.084;14.468;2023-12-20T06:37:06;98206.66;;;4.14;87.83
81057;BME280;70563;50.084;14.468;2023-12-20T06:39:31;98206.16;;;4.10;88.47
81057;BME280;70563;50.084;14.468;2023-12-20T06:41:59;98213.38;;;4.16;87.80
81057;BME280;70563;50.084;14.468;2023-12-20T06:44:24;98222.03;;;4.17;87.90
81057;BME280;70563;50.084;14.468;2023-12-20T06:46:50;98227.16;;;4.26;88.26
81057;BME280;70563;50.084;14.468;2023-12-20T06:49:15;98229.00;;;4.34;87.06
81057;BME280;70563;50.084;14.468;2023-12-20T06:51:40;98231.22;;;4.21;87.98
81057;BME280;70563;50.084;14.468;2023-12-20T06:54:06;98240.91;;;4.28;87.56
81057;BME280;70563;50.084;14.468;2023-12-20T06:56:32;98243.16;;;4.23;87.50
81057;BME280;70563;50.084;14.468;2023-12-20T06:58:57;98250.94;;;4.41;85.76
81057;BME280;70563;50.084;14.468;2023-12-20T07:01:23;98244.06;;;4.14;87.82
81057;BME280;70563;50.084;14.468;2023-12-20T07:03:48;98254.03;;;4.11;87.32
81057;BME280;70563;50.084;14.468;2023-12-20T07:06:13;98265.34;;;4.01;88.53
81057;BME280;70563;50.084;14.468;2023-12-20T07:08:41;98258.91;;;4.14;88.16
81057;BME280;70563;50.084;14.468;2023-12-20T07:11:07;98273.66;;;3.97;88.15
81057;BME280;70563;50.084;14.468;2023-12-20T07:13:32;98268.25;;;4.16;88.13
81057;BME280;70563;50.084;14.468;2023-12-20T07:15:57;98267.03;;;4.02;87.60
81057;BME280;70563;50.084;14.468;2023-12-20T07:18:23;98275.31;;;3.98;88.00
81057;BME280;70563;50.084;14.468;2023-12-20T07:20:49;98274.50;;;3.97;88.29
81057;BME280;70563;50.084;14.468;2023-12-20T07:23:14;98277.66;;;4.09;87.98
81057;BME280;70563;50.084;14.468;2023-12-20T07:25:39;98284.78;;;3.99;88.43
81057;BME280;70563;50.084;14.468;2023-12-20T07:28:05;98271.72;;;3.99;88.44
81057;BME280;70563;50.084;14.468;2023-12-20T07:30:31;98285.91;;;3.96;87.97
81057;BME280;70563;50.084;14.468;2023-12-20T07:32:56;98288.06;;;4.01;88.71
81057;BME280;70563;50.084;14.468;2023-12-20T07:35:23;98296.66;;;4.11;88.40
81057;BME280;70563;50.084;14.468;2023-12-20T07:37:48;98299.47;;;4.00;88.61
81057;BME280;70563;50.084;14.468;2023-12-20T07:40:14;98300.66;;;4.06;88.37
81057;BME280;70563;50.084;14.468;2023-12-20T07:42:42;98309.34;;;4.06;88.91
81057;BME280;70563;50.084;14.468;2023-12-20T07:45:07;98308.38;;;4.07;88.28
81057;BME280;70563;50.084;14.468;2023-12-20T07:47:33;98300.25;;;4.10;87.47
81057;BME280;70563;50.084;14.468;2023-12-20T07:49:58;98294.78;;;4.03;87.14
81057;BME280;70563;50.084;14.468;2023-12-20T07:52:23;98305.47;;;4.10;87.09
81057;BME280;70563;50.084;14.468;2023-12-20T07:54:49;98315.84;;;4.02;87.19
81057;BME280;70563;50.084;14.468;2023-12-20T07:57:14;98323.31;;;4.15;86.88
81057;BME280;70563;50.084;14.468;2023-12-20T07:59:40;98320.00;;;4.13;87.07
81057;BME280;70563;50.084;14.468;2023-12-20T08:02:05;98314.25;;;4.09;86.74
81057;BME280;70563;50.084;14.468;2023-12-20T08:04:31;98305.13;;;4.13;86.88
81057;BME280;70563;50.084;14.468;2023-12-20T08:06:57;98307.00;;;4.21;86.71
81057;BME280;70563;50.084;14.468;2023-12-20T08:09:23;98303.81;;;4.35;85.95
81057;BME280;70563;50.084;14.468;2023-12-20T08:11:48;98301.28;;;4.43;84.99
81057;BME280;70563;50.084;14.468;2023-12-20T08:14:15;98293.19;;;4.28;85.46
81057;BME280;70563;50.084;14.468;2023-12-20T08:16:41;98304.28;;;4.31;85.41
81057;BME280;70563;50.084;14.468;2023-12-20T08:19:06;98298.94;;;4.32;85.68
81057;BME280;70563;50.084;14.468;2023-12-20T08:21:31;98304.28;;;4.31;85.64
81057;BME280;70563;50.084;14.468;2023-12-20T08:23:57;98314.81;;;4.39;85.65
81057;BME280;70563;50.084;14.468;2023-12-20T08:26:22;98319.56;;;4.43;84.43
81057;BME280;70563;50.084;14.468;2023-12-20T08:28:49;98320.25;;;4.45;85.23
81057;BME280;70563;50.084;14.468;2023-12-20T08:31:16;98326.44;;;4.44;85.54
81057;BME280;70563;50.084;14.468;2023-12-20T08:33:43;98319.78;;;4.50;84.66
81057;BME280;70563;50.084;14.468;2023-12-20T08:36:09;98322.25;;;4.51;84.40
81057;BME280;70563;50.084;14.468;2023-12-20T08:38:34;98326.31;;;4.46;84.15
81057;BME280;70563;50.084;14.468;2023-12-20T08:41:00;98334.16;;;4.46;84.59
81057;BME280;70563;50.084;14.468;2023-12-20T08:43:26;98327.94;;;4.47;83.90
81057;BME280;70563;50.084;14.468;2023-12-20T08:45:51;98333.47;;;4.44;84.17
81057;BME280;70563;50.084;14.468;2023-12-20T08:48:17;98330.84;;;4.44;84.26
81057;BME280;70563;50.084;14.468;2023-12-20T08:50:43;98328.56;;;4.41;83.92
81057;BME280;70563;50.084;14.468;2023-12-20T08:53:08;98327.13;;;4.46;84.08
81057;BME280;70563;50.084;14.468;2023-12-20T08:55:34;98321.44;;;4.51;83.39
81057;BME280;70563;50.084;14.468;2023-12-20T08:57:59;98310.16;;;4.50;83.31
81057;BME280;70563;50.084;14.468;2023-12-20T09:00:24;98317.59;;;4.63;83.76
81057;BME280;70563;50.084;14.468;2023-12-20T09:02:53;98313.75;;;4.49;84.17
81057;BME280;70563;50.084;14.468;2023-12-20T09:05:18;98319.84;;;4.58;83.90
81057;BME280;70563;50.084;14.468;2023-12-20T09:07:43;98322.59;;;4.57;83.95
81057;BME280;70563;50.084;14.468;2023-12-20T09:10:09;98319.97;;;4.57;83.84
81057;BME280;70563;50.084;14.468;2023-12-20T09:12:34;98313.63;;;4.59;84.19
81057;BME280;70563;50.084;14.468;2023-12-20T09:15:00;98306.59;;;4.60;84.03
81057;BME280;70563;50.084;14.468;2023-12-20T09:17:27;98319.16;;;4.56;82.98
81057;BME280;70563;50.084;14.468;2023-12-20T09:19:53;98314.03;;;4.72;83.01
81057;BME280;70563;50.084;14.468;2023-12-20T09:22:19;98317.94;;;4.68;83.71
81057;BME280;70563;50.084;14.468;2023-12-20T09:24:44;98320.31;;;4.80;82.43
81057;BME280;70563;50.084;14.468;2023-12-20T09:27:10;98329.19;;;4.95;82.63
81057;BME280;70563;50.084;14.468;2023-12-20T09:29:35;98322.63;;;4.91;82.25
81057;BME280;70563;50.084;14.468;2023-12-20T09:32:01;98328.47;;;5.11;81.11
81057;BME280;70563;50.084;14.468;2023-12-20T09:34:26;98330.41;;;5.59;79.19
81057;BME280;70563;50.084;14.468;2023-12-20T09:36:52;98328.06;;;5.48;78.84
81057;BME280;70563;50.084;14.468;2023-12-20T09:39:18;98325.56;;;5.30;80.56
81057;BME280;70563;50.084;14.468;2023-12-20T09:42:06;98329.38;;;5.44;79.36
81057;BME280;70563;50.084;14.468;2023-12-20T09:44:32;98328.69;;;5.34;79.66
81057;BME280;70563;50.084;14.468;2023-12-20T09:47:02;98327.06;;;5.33;80.22
81057;BME280;70563;50.084;14.468;2023-12-20T09:49:27;98322.47;;;5.35;79.93
81057;BME280;70563;50.084;14.468;2023-12-20T09:51:53;98317.59;;;5.48;80.20
81057;BME280;70563;50.084;14.468;2023-12-20T09:54:20;98316.94;;;5.38;79.13
81057;BME280;70563;50.084;14.468;2023-12-20T09:56:47;98320.41;;;5.46;79.33
81057;BME280;70563;50.084;14.468;2023-12-20T09:59:13;98323.97;;;5.96;77.36
81057;BME280;70563;50.084;14.468;2023-12-20T10:01:40;98321.13;;;5.81;77.07
81057;BME280;70563;50.084;14.468;2023-12-20T10:04:06;98323.31;;;6.10;76.11
81057;BME280;70563;50.084;14.468;2023-12-20T10:06:36;98309.22;;;6.27;75.07
81057;BME280;70563;50.084;14.468;2023-12-20T10:09:01;98317.03;;;6.60;74.31
81057;BME280;70563;50.084;14.468;2023-12-20T10:11:27;98310.84;;;6.12;75.04
81057;BME280;70563;50.084;14.468;2023-12-20T10:13:59;98305.47;;;6.22;74.94
81057;BME280;70563;50.084;14.468;2023-12-20T10:16:25;98303.31;;;6.17;74.69
81057;BME280;70563;50.084;14.468;2023-12-20T10:18:53;98304.97;;;6.10;74.87
81057;BME280;70563;50.084;14.468;2023-12-20T10:21:18;98298.88;;;6.34;73.85
81057;BME280;70563;50.084;14.468;2023-12-20T10:23:44;98303.41;;;6.73;72.63
81057;BME280;70563;50.084;14.468;2023-12-20T10:26:10;98296.09;;;6.36;74.26
81057;BME280;70563;50.084;14.468;2023-12-20T10:28:44;98293.16;;;6.14;74.68
81057;BME280;70563;50.084;14.468;2023-12-20T10:31:09;98298.69;;;5.87;75.95
81057;BME280;70563;50.084;14.468;2023-12-20T10:33:35;98298.84;;;5.85;76.04
81057;BME280;70563;50.084;14.468;2023-12-20T10:36:00;98297.72;;;6.37;74.27
81057;BME280;70563;50.084;14.468;2023-12-20T10:38:25;98286.94;;;6.23;73.74
81057;BME280;70563;50.084;14.468;2023-12-20T10:40:57;98290.34;;;5.75;75.84
81057;BME280;70563;50.084;14.468;2023-12-20T10:43:24;98282.13;;;5.62;75.70
81057;BME280;70563;50.084;14.468;2023-12-20T10:45:51;98271.97;;;5.59;76.05
81057;BME280;70563;50.084;14.468;2023-12-20T10:48:18;98277.69;;;5.54;76.46
81057;BME280;70563;50.084;14.468;2023-12-20T10:50:44;98276.06;;;5.61;77.08
81057;BME280;70563;50.084;14.468;2023-12-20T10:53:10;98271.38;;;5.97;75.14
81057;BME280;70563;50.084;14.468;2023-12-20T10:55:37;98261.13;;;8.07;68.60
81057;BME280;70563;50.084;14.468;2023-12-20T10:58:09;98247.19;;;11.56;56.24
81057;BME280;70563;50.084;14.468;2023-12-20T11:00:40;98241.09;;;13.71;49.03
81057;BME280;70563;50.084;14.468;2023-12-20T11:03:09;98254.72;;;15.00;45.51
81057;BME280;70563;50.084;14.468;2023-12-20T11:05:46;98249.75;;;14.42;45.65
81057;BME280;70563;50.084;14.468;2023-12-20T11:08:19;98260.41;;;15.03;44.59
81057;BME280;70563;50.084;14.468;2023-12-20T11:10:56;98257.19;;;15.31;44.52
81057;BME280;70563;50.084;14.468;2023-12-20T11:13:35;98251.88;;;16.80;39.40
81057;BME280;70563;50.084;14.468;2023-12-20T11:16:02;98241.53;;;16.25;40.35
81057;BME280;70563;50.084;14.468;2023-12-20T11:18:29;98246.47;;;17.04;39.43
81057;BME280;70563;50.084;14.468;2023-12-20T11:20:59;98250.81;;;15.32;42.43
81057;BME280;70563;50.084;14.468;2023-12-20T11:23:25;98235.03;;;16.56;40.06
81057;BME280;70563;50.084;14.468;2023-12-20T11:25:56;98236.59;;;18.02;37.34
81057;BME280;70563;50.084;14.468;2023-12-20T11:28:24;98243.97;;;16.39;38.88
81057;BME280;70563;50.084;14.468;2023-12-20T11:30:54;98253.47;;;15.51;42.17
81057;BME280;70563;50.084;14.468;2023-12-20T11:33:24;98239.81;;;15.77;41.29
81057;BME280;70563;50.084;14.468;2023-12-20T11:35:51;98235.97;;;13.38;46.12
81057;BME280;70563;50.084;14.468;2023-12-20T11:38:19;98240.66;;;14.06;45.18
81057;BME280;70563;50.084;14.468;2023-12-20T11:40:48;98246.16;;;11.50;51.35
81057;BME280;70563;50.084;14.468;2023-12-20T11:43:29;98241.94;;;11.63;52.21
81057;BME280;70563;50.084;14.468;2023-12-20T11:45:55;98239.28;;;9.61;57.52
81057;BME280;70563;50.084;14.468;2023-12-20T11:48:21;98247.66;;;9.93;55.66
81057;BME280;70563;50.084;14.468;2023-12-20T11:50:46;98225.03;;;8.83;59.26
81057;BME280;70563;50.084;14.468;2023-12-20T11:53:12;98238.34;;;8.37;59.94
81057;BME280;70563;50.084;14.468;2023-12-20T11:55:37;98228.78;;;9.46;56.59
81057;BME280;70563;50.084;14.468;2023-12-20T11:58:02;98221.59;;;10.26;53.97
81057;BME280;70563;50.084;14.468;2023-12-20T12:00:28;98223.75;;;8.49;59.86
81057;BME280;70563;50.084;14.468;2023-12-20T12:02:58;98215.06;;;8.11;61.41
81057;BME280;70563;50.084;14.468;2023-12-20T12:05:23;98213.47;;;7.18;64.16
81057;BME280;70563;50.084;14.468;2023-12-20T12:07:49;98215.88;;;6.97;65.90
81057;BME280;70563;50.084;14.468;2023-12-20T12:10:14;98219.03;;;6.92;65.42
81057;BME280;70563;50.084;14.468;2023-12-20T12:12:39;98218.28;;;6.75;66.93
81057;BME280;70563;50.084;14.468;2023-12-20T12:15:05;98221.97;;;6.50;67.84
81057;BME280;70563;50.084;14.468;2023-12-20T12:17:31;98226.75;;;6.38;68.47
81057;BME280;70563;50.084;14.468;2023-12-20T12:20:04;98210.47;;;6.51;68.23
81057;BME280;70563;50.084;14.468;2023-12-20T12:22:30;98219.75;;;6.14;68.54
81057;BME280;70563;50.084;14.468;2023-12-20T12:24:59;98220.09;;;6.19;68.76
81057;BME280;70563;50.084;14.468;2023-12-20T12:27:27;98213.22;;;6.18;68.62
81057;BME280;70563;50.084;14.468;2023-12-20T12:30:03;98210.94;;;5.99;69.36
81057;BME280;70563;50.084;14.468;2023-12-20T12:32:29;98195.00;;;6.09;68.99
81057;BME280;70563;50.084;14.468;2023-12-20T12:34:55;98196.19;;;6.06;67.51
81057;BME280;70563;50.084;14.468;2023-12-20T12:37:20;98194.69;;;6.12;66.46
81057;BME280;70563;50.084;14.468;2023-12-20T12:39:49;98198.44;;;6.17;66.57
81057;BME280;70563;50.084;14.468;2023-12-20T12:42:14;98194.84;;;6.18;67.26
81057;BME280;70563;50.084;14.468;2023-12-20T12:44:39;98188.59;;;6.36;66.33
81057;BME280;70563;50.084;14.468;2023-12-20T12:47:05;98188.19;;;6.47;65.49
81057;BME280;70563;50.084;14.468;2023-12-20T12:49:32;98183.47;;;6.82;64.94
81057;BME280;70563;50.084;14.468;2023-12-20T12:51:57;98178.56;;;6.87;64.51
81057;BME280;70563;50.084;14.468;2023-12-20T12:54:23;98173.50;;;7.08;63.10